createdAt,value
2023-03-21T00:01:38.865Z,4.60
2023-03-21T00:04:06.502Z,5.43
2023-03-21T00:06:34.195Z,5.33
2023-03-21T00:09:01.747Z,5.57
2023-03-21T00:11:29.263Z,5.07
2023-03-21T00:13:56.751Z,5.27
2023-03-21T00:16:29.491Z,4.30
2023-03-21T00:18:58.708Z,4.37
2023-03-21T00:24:14.192Z,4.97
2023-03-21T00:26:41.748Z,5.30
2023-03-21T00:29:09.290Z,5.13
2023-03-21T00:31:36.925Z,5.27
2023-03-21T00:34:04.526Z,4.83
2023-03-21T00:36:32.293Z,5.03
2023-03-21T00:38:59.888Z,5.20
2023-03-21T00:41:41.495Z,5.33
2023-03-21T00:44:10.358Z,4.70
2023-03-21T00:46:48.990Z,5.23
2023-03-21T00:49:21.886Z,4.93
2023-03-21T00:51:49.543Z,5.13
2023-03-21T00:54:18.143Z,5.77
2023-03-21T00:56:45.792Z,5.40
2023-03-21T00:59:13.385Z,5.70
2023-03-21T01:01:40.940Z,5.37
2023-03-21T01:04:08.562Z,5.93
2023-03-21T01:06:39.220Z,5.40
2023-03-21T01:09:07.697Z,6.07
2023-03-21T01:11:35.625Z,5.50
2023-03-21T01:14:21.390Z,5.67
2023-03-21T01:16:51.245Z,5.67
2023-03-21T01:19:38.001Z,5.70
2023-03-21T01:22:08.030Z,6.07
2023-03-21T01:24:37.709Z,7.10
2023-03-21T01:27:05.541Z,6.13
2023-03-21T01:29:33.037Z,7.10
2023-03-21T01:32:00.588Z,6.23
2023-03-21T01:34:28.104Z,6.23
2023-03-21T01:36:55.682Z,7.47
2023-03-21T01:39:23.161Z,6.17
2023-03-21T01:41:50.775Z,6.47
2023-03-21T01:44:19.045Z,6.20
2023-03-21T01:46:57.361Z,6.37
2023-03-21T01:49:34.763Z,7.13
2023-03-21T01:52:12.288Z,7.43
2023-03-21T01:54:43.429Z,6.73
2023-03-21T01:57:19.230Z,8.03
2023-03-21T01:59:48.924Z,6.77
2023-03-21T02:02:19.966Z,6.70
2023-03-21T02:04:47.796Z,7.00
2023-03-21T02:07:16.362Z,6.73
2023-03-21T02:09:47.113Z,6.57
2023-03-21T02:12:15.540Z,6.90
2023-03-21T02:14:43.320Z,7.57
2023-03-21T02:17:37.386Z,6.73
2023-03-21T02:20:23.739Z,7.23
2023-03-21T02:22:54.274Z,6.20
2023-03-21T02:25:27.615Z,6.83
2023-03-21T02:28:06.288Z,7.07
2023-03-21T02:30:49.210Z,7.00
2023-03-21T02:33:18.598Z,6.70
2023-03-21T02:35:58.618Z,7.47
2023-03-21T02:38:31.259Z,6.77
2023-03-21T02:41:19.062Z,7.10
2023-03-21T02:43:52.363Z,6.97
2023-03-21T02:46:28.342Z,7.40
2023-03-21T02:49:23.348Z,6.80
2023-03-21T02:51:51.609Z,6.63
2023-03-21T02:54:45.465Z,7.23
2023-03-21T02:57:08.918Z,7.33
2023-03-21T02:59:44.409Z,7.27
2023-03-21T03:02:16.216Z,6.93
2023-03-21T03:04:43.836Z,6.47
2023-03-21T03:07:14.294Z,7.47
2023-03-21T03:10:00.746Z,6.67
2023-03-21T03:12:53.468Z,6.77
2023-03-21T03:15:36.388Z,7.20
2023-03-21T03:18:12.864Z,6.37
2023-03-21T03:20:40.490Z,6.40
2023-03-21T03:23:34.449Z,6.77
2023-03-21T03:26:04.789Z,6.80
2023-03-21T03:28:35.244Z,7.50
2023-03-21T03:31:09.668Z,6.90
2023-03-21T03:33:39.666Z,6.60
2023-03-21T03:36:14.851Z,6.30
2023-03-21T03:38:47.591Z,7.43
2023-03-21T03:42:04.430Z,7.47
2023-03-21T03:44:29.109Z,7.03
2023-03-21T03:47:32.417Z,7.57
2023-03-21T03:50:02.409Z,6.33
2023-03-21T03:52:49.991Z,6.50
2023-03-21T03:55:23.521Z,5.93
2023-03-21T03:57:51.000Z,7.00
2023-03-21T04:00:18.688Z,7.17
2023-03-21T04:02:46.380Z,6.83
2023-03-21T04:05:14.087Z,6.43
2023-03-21T04:07:41.675Z,6.77
2023-03-21T04:10:09.440Z,5.97
2023-03-21T04:12:36.992Z,6.37
2023-03-21T04:15:10.642Z,6.30
2023-03-21T04:17:39.173Z,6.63
2023-03-21T04:20:12.299Z,7.40
2023-03-21T04:22:44.433Z,6.80
2023-03-21T04:25:13.051Z,6.90
2023-03-21T04:27:40.639Z,7.13
2023-03-21T04:30:08.537Z,7.23
2023-03-21T04:32:36.202Z,7.47
2023-03-21T04:35:03.776Z,7.27
2023-03-21T04:37:31.412Z,6.93
2023-03-21T04:39:58.940Z,7.17
2023-03-21T04:42:26.705Z,8.43
2023-03-21T04:44:54.205Z,6.53
2023-03-21T04:47:21.810Z,7.30
2023-03-21T04:49:49.365Z,6.97
2023-03-21T04:52:17.029Z,6.53
2023-03-21T04:54:44.541Z,6.63
2023-03-21T04:57:12.060Z,7.53
2023-03-21T04:59:39.652Z,7.00
2023-03-21T05:02:07.216Z,6.80
2023-03-21T05:04:34.800Z,7.30
2023-03-21T05:07:02.329Z,7.20
2023-03-21T05:09:29.856Z,6.77
2023-03-21T05:11:57.388Z,6.80
2023-03-21T05:14:26.703Z,6.53
2023-03-21T05:16:54.541Z,6.20
2023-03-21T05:19:26.344Z,7.27
2023-03-21T05:21:53.848Z,6.80
2023-03-21T05:24:22.257Z,7.57
2023-03-21T05:26:49.865Z,8.17
2023-03-21T05:29:18.458Z,7.00
2023-03-21T05:31:46.500Z,7.00
2023-03-21T05:34:14.682Z,6.63
2023-03-21T05:36:42.197Z,7.33
2023-03-21T05:39:09.709Z,6.77
2023-03-21T05:41:37.338Z,6.90
2023-03-21T05:44:04.993Z,6.87
2023-03-21T05:46:32.656Z,7.77
2023-03-21T05:49:00.211Z,7.47
2023-03-21T05:51:27.751Z,7.70
2023-03-21T05:53:55.377Z,18.10
2023-03-21T05:56:22.969Z,9.63
2023-03-21T05:58:50.463Z,7.50
2023-03-21T06:01:18.002Z,7.63
2023-03-21T06:03:45.638Z,8.63
2023-03-21T06:06:13.211Z,7.90
2023-03-21T06:08:40.749Z,7.73
2023-03-21T06:11:13.939Z,6.97
2023-03-21T06:13:42.204Z,7.33
2023-03-21T06:16:09.854Z,7.07
2023-03-21T06:18:37.467Z,6.80
2023-03-21T06:21:05.015Z,7.80
2023-03-21T06:23:32.594Z,6.13
2023-03-21T06:26:00.130Z,6.10
2023-03-21T06:28:27.688Z,7.67
2023-03-21T06:30:55.233Z,6.97
2023-03-21T06:33:22.957Z,6.67
2023-03-21T06:35:54.436Z,7.20
2023-03-21T06:38:22.113Z,6.90
2023-03-21T06:40:50.018Z,6.73
2023-03-21T06:43:17.694Z,7.07
2023-03-21T06:45:45.674Z,6.53
2023-03-21T06:48:13.299Z,6.57
2023-03-21T06:50:40.814Z,6.00
2023-03-21T06:53:08.348Z,6.67
2023-03-21T06:55:36.088Z,6.63
2023-03-21T06:58:03.891Z,6.30
2023-03-21T07:00:31.633Z,5.80
2023-03-21T07:02:59.491Z,5.33
2023-03-21T07:05:27.013Z,4.73
2023-03-21T07:07:54.665Z,5.30
2023-03-21T07:10:22.201Z,6.00
2023-03-21T07:12:49.707Z,5.57
2023-03-21T07:15:17.226Z,5.60
2023-03-21T07:17:44.800Z,5.00
2023-03-21T07:20:12.692Z,5.40
2023-03-21T07:22:40.439Z,5.50
2023-03-21T07:25:08.321Z,5.57
2023-03-21T07:27:36.018Z,5.80
2023-03-21T07:30:06.811Z,5.87
2023-03-21T07:32:35.342Z,6.80
2023-03-21T07:35:02.876Z,5.87
2023-03-21T07:37:30.596Z,5.30
2023-03-21T07:39:58.118Z,5.17
2023-03-21T07:42:25.809Z,5.73
2023-03-21T07:44:53.353Z,6.10
2023-03-21T07:47:21.015Z,5.03
2023-03-21T07:49:48.565Z,4.17
2023-03-21T07:52:16.197Z,4.10
2023-03-21T07:54:43.712Z,3.63
2023-03-21T07:57:13.549Z,4.20
2023-03-21T07:59:41.262Z,4.90
2023-03-21T08:02:10.804Z,3.77
2023-03-21T08:04:38.423Z,3.50
2023-03-21T08:07:05.929Z,4.10
2023-03-21T08:09:33.548Z,4.43
2023-03-21T08:12:01.046Z,3.87
2023-03-21T08:14:28.618Z,4.37
2023-03-21T08:16:56.155Z,4.20
2023-03-21T08:19:23.748Z,3.80
2023-03-21T08:21:51.223Z,3.70
2023-03-21T08:24:18.881Z,3.87
2023-03-21T08:26:46.621Z,3.93
2023-03-21T08:29:14.389Z,3.70
2023-03-21T08:31:41.894Z,3.53
2023-03-21T08:34:09.470Z,3.30
2023-03-21T08:36:37.655Z,3.90
2023-03-21T08:39:05.609Z,3.70
2023-03-21T08:41:37.099Z,3.00
2023-03-21T08:44:05.799Z,3.10
2023-03-21T08:46:33.762Z,4.47
2023-03-21T08:49:01.402Z,3.87
2023-03-21T08:51:28.922Z,4.63
2023-03-21T08:53:56.496Z,3.87
2023-03-21T08:56:23.980Z,5.03
2023-03-21T08:58:51.680Z,5.23
2023-03-21T09:01:19.326Z,5.90
2023-03-21T09:03:46.897Z,5.83
2023-03-21T09:06:14.430Z,5.13
2023-03-21T09:08:42.548Z,5.03
2023-03-21T09:11:10.992Z,6.07
2023-03-21T09:13:38.542Z,6.17
2023-03-21T09:16:06.286Z,5.90
2023-03-21T09:18:33.925Z,6.53
2023-03-21T09:21:01.485Z,6.47
2023-03-21T09:23:29.160Z,6.20
2023-03-21T09:25:56.693Z,7.30
2023-03-21T09:28:24.279Z,6.43
2023-03-21T09:30:51.855Z,6.57
2023-03-21T09:33:19.566Z,6.27
2023-03-21T09:35:47.362Z,6.40
2023-03-21T09:38:15.152Z,6.97
2023-03-21T09:41:04.049Z,5.67
2023-03-21T09:43:42.265Z,6.80
2023-03-21T09:46:19.089Z,6.20
2023-03-21T09:48:57.491Z,5.90
2023-03-21T09:51:28.051Z,5.77
2023-03-21T09:53:57.216Z,5.93
2023-03-21T09:56:25.565Z,5.70
2023-03-21T09:58:54.886Z,6.23
2023-03-21T10:01:24.897Z,5.23
2023-03-21T10:03:52.415Z,5.70
2023-03-21T10:06:20.237Z,5.80
2023-03-21T10:08:48.068Z,6.23
2023-03-21T10:11:21.921Z,6.00
2023-03-21T10:13:55.328Z,6.13
2023-03-21T10:16:26.188Z,6.53
2023-03-21T10:18:54.795Z,6.07
2023-03-21T10:21:51.311Z,5.73
2023-03-21T10:24:13.510Z,6.70
2023-03-21T10:26:41.245Z,6.37
2023-03-21T10:29:10.812Z,5.97
2023-03-21T10:31:38.575Z,6.60
2023-03-21T10:34:10.658Z,6.10
2023-03-21T10:36:38.270Z,5.80
2023-03-21T10:39:07.478Z,6.03
2023-03-21T10:41:35.200Z,6.23
2023-03-21T10:44:11.121Z,5.90
2023-03-21T10:46:39.929Z,6.13
2023-03-21T10:49:08.251Z,6.10
2023-03-21T10:51:37.371Z,6.10
2023-03-21T10:54:09.594Z,6.10
2023-03-21T10:56:38.861Z,7.03
2023-03-21T10:59:07.404Z,5.87
2023-03-21T11:01:37.040Z,5.27
2023-03-21T11:04:10.473Z,5.87
2023-03-21T11:06:39.645Z,6.00
2023-03-21T11:09:15.029Z,6.03
2023-03-21T11:11:50.786Z,5.73
2023-03-21T11:14:27.749Z,4.87
2023-03-21T11:16:55.473Z,5.13
2023-03-21T11:19:33.864Z,5.27
2023-03-21T11:22:06.150Z,5.17
2023-03-21T11:24:34.523Z,5.10
2023-03-21T11:27:06.473Z,5.10
2023-03-21T11:29:35.972Z,5.67
2023-03-21T11:32:23.786Z,5.53
2023-03-21T11:35:06.526Z,5.63
2023-03-21T11:37:38.315Z,6.03
2023-03-21T11:40:25.118Z,7.53
2023-03-21T11:42:58.592Z,10.33
2023-03-21T11:45:30.145Z,10.23
2023-03-21T11:47:59.128Z,6.50
2023-03-21T11:50:34.849Z,8.03
2023-03-21T11:53:20.969Z,7.40
2023-03-21T11:55:57.441Z,8.40
2023-03-21T11:58:33.830Z,6.40
2023-03-21T12:01:06.150Z,6.63
2023-03-21T12:03:47.307Z,5.83
2023-03-21T12:06:20.134Z,5.70
2023-03-21T12:09:03.763Z,4.80
2023-03-21T12:11:41.894Z,6.23
2023-03-21T12:14:18.025Z,6.00
2023-03-21T12:17:14.742Z,5.87
2023-03-21T12:19:45.289Z,6.20
2023-03-21T12:22:33.576Z,6.70
2023-03-21T12:25:06.716Z,6.27
2023-03-21T12:27:43.571Z,6.80
2023-03-21T12:30:31.650Z,6.20
2023-03-21T12:33:15.404Z,6.23
2023-03-21T12:35:45.892Z,6.77
2023-03-21T12:38:13.532Z,6.77
2023-03-21T12:40:54.296Z,6.87
2023-03-21T12:43:27.870Z,6.50
2023-03-21T12:45:58.954Z,6.57
2023-03-21T12:48:29.605Z,5.83
2023-03-21T12:50:58.540Z,6.80
2023-03-21T12:53:26.028Z,7.00
2023-03-21T12:55:54.350Z,7.17
2023-03-21T12:58:24.366Z,6.77
2023-03-21T13:00:54.102Z,6.77
2023-03-21T13:03:39.914Z,6.30
2023-03-21T13:06:10.068Z,6.40
2023-03-21T13:08:44.049Z,6.17
2023-03-21T13:11:14.051Z,6.40
2023-03-21T13:13:53.449Z,5.77
2023-03-21T13:16:21.038Z,5.90
2023-03-21T13:18:51.317Z,6.10
2023-03-21T13:21:23.394Z,5.93
2023-03-21T13:24:18.428Z,5.90
2023-03-21T13:26:47.780Z,6.17
2023-03-21T13:29:29.032Z,5.87
2023-03-21T13:31:57.737Z,6.10
2023-03-21T13:34:26.048Z,6.20
2023-03-21T13:36:53.766Z,5.83
2023-03-21T13:39:25.400Z,5.27
2023-03-21T13:41:53.030Z,5.83
2023-03-21T13:44:20.534Z,5.10
2023-03-21T13:47:01.777Z,5.60
2023-03-21T13:49:36.301Z,5.77
2023-03-21T13:52:09.646Z,5.73
2023-03-21T13:54:49.754Z,5.50
2023-03-21T13:57:36.178Z,6.03
2023-03-21T14:00:16.154Z,5.57
2023-03-21T14:03:22.068Z,5.77
2023-03-21T14:05:50.668Z,5.00
2023-03-21T14:08:27.724Z,5.90
2023-03-21T14:11:01.013Z,4.77
2023-03-21T14:13:29.748Z,5.33
2023-03-21T14:16:07.343Z,5.33
2023-03-21T14:18:53.531Z,5.07
2023-03-21T14:21:26.424Z,5.67
2023-03-21T14:24:04.897Z,6.00
2023-03-21T14:26:42.779Z,5.33
2023-03-21T14:29:25.850Z,5.23
2023-03-21T14:31:56.988Z,5.70
2023-03-21T14:34:25.587Z,4.83
2023-03-21T14:36:58.243Z,5.63
2023-03-21T14:39:30.118Z,5.90
2023-03-21T14:42:01.872Z,6.17
2023-03-21T14:44:53.854Z,5.13
2023-03-21T14:47:24.437Z,4.67
2023-03-21T14:49:52.410Z,5.37
2023-03-21T14:52:25.579Z,4.97
2023-03-21T14:54:53.624Z,5.00
2023-03-21T14:57:29.274Z,4.57
2023-03-21T14:59:58.598Z,4.90
2023-03-21T15:02:28.712Z,4.77
2023-03-21T15:04:57.897Z,5.00
2023-03-21T15:07:25.463Z,5.17
2023-03-21T15:09:57.345Z,5.13
2023-03-21T15:12:24.989Z,5.57
2023-03-21T15:14:52.906Z,5.33
2023-03-21T15:17:20.924Z,5.07
2023-03-21T15:19:48.522Z,5.20
2023-03-21T15:22:31.130Z,6.00
2023-03-21T15:25:00.607Z,5.13
2023-03-21T15:27:28.963Z,4.93
2023-03-21T15:29:56.549Z,4.90
2023-03-21T15:32:26.235Z,5.67
2023-03-21T15:35:04.579Z,5.27
2023-03-21T15:37:34.587Z,5.37
2023-03-21T15:40:28.045Z,5.20
2023-03-21T15:43:15.115Z,6.00
2023-03-21T15:45:49.729Z,4.53
2023-03-21T15:48:17.408Z,5.37
2023-03-21T15:50:56.572Z,5.60
2023-03-21T15:53:24.635Z,5.13
2023-03-21T15:55:57.641Z,5.27
2023-03-21T15:58:26.649Z,5.07
2023-03-21T16:00:58.308Z,5.27
2023-03-21T16:03:30.868Z,4.67
2023-03-21T16:06:02.895Z,4.80
2023-03-21T16:08:33.760Z,5.70
2023-03-21T16:11:27.800Z,4.90
2023-03-21T16:13:56.976Z,5.10
2023-03-21T16:16:28.469Z,5.00
2023-03-21T16:18:57.202Z,5.53
2023-03-21T16:21:29.875Z,5.10
2023-03-21T16:23:57.953Z,4.60
2023-03-21T16:26:27.337Z,5.00
2023-03-21T16:28:55.028Z,4.93
2023-03-21T16:31:24.218Z,4.73
2023-03-21T16:33:51.809Z,5.27
2023-03-21T16:36:19.369Z,4.80
2023-03-21T16:38:47.867Z,4.83
2023-03-21T16:41:15.788Z,5.23
2023-03-21T16:43:44.027Z,4.93
2023-03-21T16:46:15.202Z,5.10
2023-03-21T16:48:43.874Z,5.20
2023-03-21T16:51:15.139Z,5.10
2023-03-21T16:53:43.525Z,5.33
2023-03-21T16:56:15.913Z,5.10
2023-03-21T16:58:43.716Z,5.20
2023-03-21T17:01:21.413Z,5.07
2023-03-21T17:03:49.310Z,5.50
2023-03-21T17:06:18.371Z,5.77
2023-03-21T17:08:46.097Z,4.80
2023-03-21T17:11:14.913Z,4.53
2023-03-21T17:13:42.814Z,5.23
2023-03-21T17:16:12.738Z,5.60
2023-03-21T17:18:40.402Z,5.10
2023-03-21T17:21:12.908Z,5.07
2023-03-21T17:23:40.493Z,4.83
2023-03-21T17:26:07.987Z,5.00
2023-03-21T17:28:35.769Z,5.47
2023-03-21T17:31:03.390Z,4.63
2023-03-21T17:33:31.024Z,4.53
2023-03-21T17:35:58.590Z,5.07
2023-03-21T17:38:26.256Z,5.90
2023-03-21T17:40:53.761Z,4.77
2023-03-21T17:43:21.485Z,3.27
2023-03-21T17:45:49.198Z,3.07
2023-03-21T17:48:16.968Z,2.73
2023-03-21T17:50:44.510Z,2.80
2023-03-21T17:53:12.100Z,2.33
2023-03-21T17:55:39.629Z,2.77
2023-03-21T17:58:07.149Z,2.67
2023-03-21T18:00:34.699Z,2.83
2023-03-21T18:03:02.274Z,2.50
2023-03-21T18:05:29.741Z,2.93
2023-03-21T18:08:13.198Z,2.90
2023-03-21T18:10:42.171Z,3.43
2023-03-21T18:13:10.285Z,2.50
2023-03-21T18:15:38.532Z,2.80
2023-03-21T18:18:06.286Z,2.80
2023-03-21T18:23:21.884Z,3.40
2023-03-21T18:25:49.833Z,2.80
2023-03-21T18:28:20.343Z,2.80
2023-03-21T18:33:39.689Z,2.80
2023-03-21T18:36:08.224Z,3.20
2023-03-21T18:38:36.583Z,3.00
2023-03-21T18:41:04.409Z,3.20
2023-03-21T18:44:02.967Z,2.53
2023-03-21T18:46:19.748Z,2.93
2023-03-21T18:48:47.878Z,3.37
2023-03-21T18:51:15.531Z,3.03
2023-03-21T18:53:43.651Z,2.63
2023-03-21T18:56:11.732Z,3.53
2023-03-21T18:58:41.792Z,2.90
2023-03-21T19:01:09.375Z,3.30
2023-03-21T19:03:37.717Z,3.20
2023-03-21T19:06:06.253Z,3.07
2023-03-21T19:08:33.935Z,3.83
2023-03-21T19:11:04.408Z,3.10
2023-03-21T19:13:34.241Z,4.10
2023-03-21T19:18:53.365Z,3.03
2023-03-21T19:21:21.378Z,3.40
2023-03-21T19:26:36.437Z,3.53
2023-03-21T19:29:03.953Z,3.33
2023-03-21T19:31:31.584Z,3.10
2023-03-21T19:33:59.586Z,3.10
2023-03-21T19:36:27.139Z,3.77
2023-03-21T19:38:54.804Z,3.93
2023-03-21T19:41:22.378Z,4.20
2023-03-21T19:43:55.120Z,3.20
2023-03-21T19:46:24.028Z,4.03
2023-03-21T19:48:51.553Z,3.50
2023-03-21T19:51:29.275Z,4.57
2023-03-21T19:53:58.327Z,4.07
2023-03-21T19:56:27.279Z,4.53
2023-03-21T19:58:55.589Z,4.67
2023-03-21T20:01:23.471Z,4.00
2023-03-21T20:03:51.348Z,4.93
2023-03-21T20:06:19.051Z,3.97
2023-03-21T20:09:27.637Z,3.47
2023-03-21T20:11:35.027Z,4.20
2023-03-21T20:14:02.564Z,3.63
2023-03-21T20:16:34.696Z,4.00
2023-03-21T20:19:03.778Z,3.70
2023-03-21T20:21:40.365Z,4.07
2023-03-21T20:24:09.799Z,4.27
2023-03-21T20:26:37.431Z,4.43
2023-03-21T20:29:43.653Z,4.53
2023-03-21T20:31:52.595Z,4.60
2023-03-21T20:34:21.132Z,4.10
2023-03-21T20:36:48.905Z,4.67
2023-03-21T20:39:16.448Z,5.10
2023-03-21T20:41:43.979Z,4.80
2023-03-21T20:44:42.168Z,5.20
2023-03-21T20:46:59.156Z,4.80
2023-03-21T20:49:26.733Z,4.60
2023-03-21T20:54:41.924Z,4.80
2023-03-21T20:57:09.481Z,4.40
2023-03-21T20:59:37.034Z,4.57
2023-03-21T21:02:04.683Z,5.00
2023-03-21T21:04:52.498Z,4.77
2023-03-21T21:07:21.538Z,4.77
2023-03-21T21:09:50.061Z,4.70
2023-03-21T21:12:17.773Z,4.57
2023-03-21T21:14:45.404Z,4.50
2023-03-21T21:20:01.194Z,4.97
2023-03-21T21:22:29.127Z,5.27
2023-03-21T21:24:56.677Z,4.80
2023-03-21T21:27:24.195Z,4.70
2023-03-21T21:29:51.714Z,4.80
2023-03-21T21:32:19.228Z,4.70
2023-03-21T21:34:46.879Z,4.37
2023-03-21T21:37:14.388Z,4.80
2023-03-21T21:39:42.042Z,4.80
2023-03-21T21:42:09.576Z,4.07
2023-03-21T21:44:37.116Z,3.87
2023-03-21T21:47:04.637Z,4.63
2023-03-21T21:49:32.177Z,4.30
2023-03-21T21:51:59.737Z,4.97
2023-03-21T21:54:27.338Z,4.93
2023-03-21T21:56:54.842Z,5.17
2023-03-21T21:59:22.430Z,4.93
2023-03-21T22:01:49.886Z,5.07
2023-03-21T22:04:17.474Z,4.93
2023-03-21T22:06:44.991Z,5.03
2023-03-21T22:09:12.501Z,4.50
2023-03-21T22:11:40.033Z,4.50
2023-03-21T22:14:07.630Z,4.53
2023-03-21T22:16:35.183Z,4.70
2023-03-21T22:19:02.813Z,5.03
2023-03-21T22:21:30.304Z,3.90
2023-03-21T22:23:57.860Z,4.80
2023-03-21T22:26:25.799Z,4.60
2023-03-21T22:28:53.449Z,4.57
2023-03-21T22:31:20.977Z,4.67
2023-03-21T22:33:48.766Z,4.67
2023-03-21T22:36:16.299Z,4.53
2023-03-21T22:38:43.984Z,4.30
2023-03-21T22:41:11.606Z,5.20
2023-03-21T22:43:39.140Z,4.60
2023-03-21T22:46:06.809Z,5.10
2023-03-21T22:48:34.425Z,4.83
2023-03-21T22:51:01.941Z,4.40
2023-03-21T22:53:29.682Z,4.37
2023-03-21T22:55:57.183Z,4.87
2023-03-21T22:58:24.818Z,5.17
2023-03-21T23:00:52.377Z,4.57
2023-03-21T23:03:20.087Z,5.30
2023-03-21T23:05:47.656Z,4.90
2023-03-21T23:08:15.150Z,4.47
2023-03-21T23:10:42.967Z,5.27
2023-03-21T23:13:10.687Z,4.50
2023-03-21T23:15:38.337Z,4.60
2023-03-21T23:18:06.186Z,5.60
2023-03-21T23:20:33.705Z,4.03
2023-03-21T23:23:01.251Z,4.70
2023-03-21T23:25:28.738Z,4.93
2023-03-21T23:27:57.456Z,4.73
2023-03-21T23:30:25.175Z,4.97
2023-03-21T23:32:52.880Z,4.90
2023-03-21T23:35:20.395Z,4.83
2023-03-21T23:37:48.021Z,5.07
2023-03-21T23:40:15.519Z,5.00
2023-03-21T23:42:43.132Z,4.83
2023-03-21T23:45:10.964Z,5.40
2023-03-21T23:47:38.585Z,5.07
2023-03-21T23:50:06.442Z,5.07
2023-03-21T23:52:34.033Z,5.80
2023-03-21T23:55:01.550Z,4.93
2023-03-21T23:57:29.116Z,5.43
2023-03-21T23:59:57.070Z,5.60
